Portada
METAR-TAF:

METAR-TAF

Aeroports :

Aeroport Internacional de Pequín

Pequín, Xina

latitud: 39-56N, longitud: 116-17E, altitud: 55 m

Observació

L'informe es va fer fa 23 minuts, a les 15:00 UTC
Vent calma
Temperatura 6°C
Humitat 75%
Pressió 1019 hPa
Visibilitat 10 km o més
sense núvols per sota de 1500 mi sense presència de cumulonimbus.

METAR: ZBAA 241500Z 00000MPS CAVOK 06/02 Q1019 NOSIG

Hora: 23:23 (15:23 UTC)

Pronòstic

L'informe es va fer fa 6 hores i 23 minuts, a les 09:00 UTC
Pronòstic vàlid del 24 a les 12 UTC al 25 a les 12 UTC
Vent 8 kt del Sud
Visibilitat: 5000 m
boirina

TAF: ZBAA 240900Z 2412/2512 18004MPS 5000 BR NSC TX20/2507Z TN04/2421Z

Observacions i pronòstics meteorològics de més de 4000 aeroports (METAR i TAF).

Les estacions disponibles són els punts grocs i vermells al mapa.

Posi el ratolí al punt desitjat per veure el nom de l'estació.

Feu clic per veure les observacions i els pronòstics meteorològics.

Per canviar el mapa: feu clic els botons verds amb una creu de color negre per apropar; al botó verd amb un guió per allunyar la imatge; o en les fletxes verdes per a mapes adjacents.


METAR-TAF: